Terminal Aerodrome Forecast
Issued by NWS Tuscon, AZ

Home | Current Version | Previous Version | Text Only | Print | Product List | Glossary On
Versions: 1 2 3 4 5 6 7 8 9 10 11 12 13 14
000
FTUS45 KTWC 290532
TAFDUG
TAF
KDUG 290532Z 2906/3006 10006KT P6SM SCT120 BKN180
     FM291000 VRB04KT P6SM FEW140 BKN200
     FM291800 15006KT P6SM SCT070
     FM292100 20008KT P6SM VCTS SCT060CB BKN100
     FM300100 35006KT P6SM SCT060 BKN100=

USA.gov is the U.S. government's official web portal to all federal, state and local government web resources and services.